Time;durP1;ratioP1;P1;durP2;ratioP2;P2;SDS_P1;SDS_P2;PMS_P1;PMS_P2;Temp;Humidity;BMP_temperature;BMP_pressure;BME280_temperature;BME280_humidity;BME280_pressure;Samples;Min_cycle;Max_cycle;Signal;HPM_P1;HPM_P2
2023/11/09 00:01:02;;;;;;;15.20;6.30;;;;;;;7.78;73.02;99093.58;110958;1240;107510;-79
2023/11/09 00:04:09;;;;;;;15.50;5.70;;;;;;;7.79;72.96;99094.36;111480;1230;93358;-80
2023/11/09 00:07:29;;;;;;;;;;;;;;;;;;;;;
2023/11/09 00:10:52;;;;;;;;;;;;;;;;;;;;;
2023/11/09 00:14:32;;;;;;;;;;;;;;;;;;;;;
2023/11/09 00:17:56;;;;;;;14.70;5.60;;;;;;;7.88;72.85;99094.02;110519;1237;108493;-80
2023/11/09 00:21:13;;;;;;;17.20;6.30;;;;;;;7.89;72.79;99098.01;111015;1232;93279;-80
2023/11/09 00:24:16;;;;;;;;;;;;;;;;;;;;;
2023/11/09 00:27:34;;;;;;;15.90;5.50;;;;;;;7.91;72.82;99100.88;110742;1238;107912;-80
2023/11/09 00:31:24;;;;;;;;;;;;;;;;;;;;;
2023/11/09 00:35:02;;;;;;;13.60;5.00;;;;;;;7.92;72.74;99098.90;111150;1235;107653;-79
2023/11/09 00:38:45;;;;;;;;;;;;;;;;;;;;;
2023/11/09 00:42:34;;;;;;;17.10;5.90;;;;;;;7.94;72.70;99098.61;111041;1235;93558;-80
2023/11/09 00:45:26;;;;;;;;;;;;;;;;;;;;;
2023/11/09 00:48:43;;;;;;;14.90;5.50;;;;;;;7.94;72.74;99103.35;111682;1229;95567;-80
2023/11/09 00:52:07;;;;;;;;;;;;;;;;;;;;;
2023/11/09 00:56:45;;;;;;;15.60;5.80;;;;;;;7.90;72.74;99106.25;110285;1241;93016;-80
2023/11/09 00:59:58;;;;;;;14.00;5.00;;;;;;;7.88;72.64;99103.15;110458;1241;93251;-80
2023/11/09 01:03:47;;;;;;;16.20;5.80;;;;;;;7.89;72.76;99101.51;110173;1241;108565;-80
2023/11/09 01:07:28;;;;;;;;;;;;;;;;;;;;;
2023/11/09 01:11:06;;;;;;;;;;;;;;;;;;;;;
2023/11/09 01:14:43;;;;;;;13.80;5.10;;;;;;;7.90;72.67;99097.74;110135;1242;93379;-80
2023/11/09 01:18:17;;;;;;;;;;;;;;;;;;;;;
2023/11/09 01:21:31;;;;;;;15.70;5.90;;;;;;;7.84;72.60;99089.45;110873;1238;107702;-80
2023/11/09 01:25:27;;;;;;;;;;;;;;;;;;;;;
2023/11/09 01:29:02;;;;;;;;;;;;;;;;;;;;;
2023/11/09 01:33:50;;;;;;;;;;;;;;;;;;;;;
2023/11/09 01:37:10;;;;;;;;;;;;;;;;;;;;;
2023/11/09 01:40:39;;;;;;;16.90;5.50;;;;;;;7.85;72.53;99083.77;111090;1235;109466;-80
2023/11/09 01:52:31;;;;;;;13.70;5.30;;;;;;;7.85;72.55;99083.63;110074;1242;93580;-80
2023/11/09 01:56:10;;;;;;;13.30;4.30;;;;;;;7.85;72.37;99083.59;110438;1241;93228;-80
2023/11/09 01:59:42;;;;;;;;;;;;;;;;;;;;;
2023/11/09 02:03:23;;;;;;;;;;;;;;;;;;;;;
2023/11/09 02:10:48;;;;;;;11.70;4.20;;;;;;;7.84;72.28;99082.05;111079;1236;92923;-80
2023/11/09 02:14:28;;;;;;;11.90;5.00;;;;;;;7.84;72.24;99080.63;110835;1238;93182;-80
2023/11/09 02:17:25;;;;;;;12.40;4.80;;;;;;;7.83;72.31;99080.02;110499;1241;109070;-80
2023/11/09 02:21:14;;;;;;;;;;;;;;;;;;;;;
2023/11/09 02:29:10;;;;;;;;;;;;;;;;;;;;;
2023/11/09 02:36:37;;;;;;;13.80;4.30;;;;;;;7.84;72.20;99096.75;109660;1251;111835;-80
2023/11/09 02:40:28;;;;;;;12.70;4.70;;;;;;;7.82;72.12;99095.61;109085;1248;95707;-79
2023/11/09 02:44:17;;;;;;;;;;;;;;;;;;;;;
2023/11/09 02:51:41;;;;;;;;;;;;;;;;;;;;;
2023/11/09 02:55:03;;;;;;;;;;;;;;;;;;;;;
2023/11/09 03:02:11;;;;;;;;;;;;;;;;;;;;;
2023/11/09 03:05:38;;;;;;;;;;;;;;;;;;;;;
2023/11/09 03:10:17;;;;;;;13.10;4.60;;;;;;;7.74;71.97;99104.23;110496;1231;94569;-81
2023/11/09 03:17:25;;;;;;;;;;;;;;;;;;;;;
2023/11/09 03:20:27;;;;;;;16.30;5.40;;;;;;;7.76;72.01;99112.55;109343;1251;107865;-80
2023/11/09 03:23:59;;;;;;;;;;;;;;;;;;;;;
2023/11/09 03:27:21;;;;;;;;;;;;;;;;;;;;;
2023/11/09 03:31:09;;;;;;;;;;;;;;;;;;;;;
2023/11/09 03:35:47;;;;;;;;;;;;;;;;;;;;;
2023/11/09 03:38:36;;;;;;;;;;;;;;;;;;;;;
2023/11/09 03:42:27;;;;;;;;;;;;;;;;;;;;;
2023/11/09 03:46:21;;;;;;;;;;;;;;;;;;;;;
2023/11/09 03:49:18;;;;;;;;;;;;;;;;;;;;;
2023/11/09 03:52:50;;;;;;;;;;;;;;;;;;;;;
2023/11/09 03:59:45;;;;;;;18.00;7.20;;;;;;;7.16;71.83;99116.08;111541;1230;94556;-80
2023/11/09 04:03:14;;;;;;;18.60;7.90;;;;;;;7.08;71.85;99111.23;111299;1232;94259;-80
2023/11/09 04:05:59;;;;;;;17.80;7.30;;;;;;;7.04;71.70;99110.25;111376;1232;110474;-80
2023/11/09 04:09:14;;;;;;;20.90;7.90;;;;;;;6.99;71.70;99106.77;111396;1234;96372;-80
2023/11/09 04:12:12;;;;;;;;;;;;;;;;;;;;;
2023/11/09 04:15:22;;;;;;;19.60;8.30;;;;;;;6.89;71.68;99104.22;111427;1231;94184;-79
2023/11/09 04:18:17;;;;;;;21.80;8.80;;;;;;;6.76;71.50;99102.27;111410;1231;94090;-80
2023/11/09 04:21:09;;;;;;;18.60;7.80;;;;;;;6.69;71.57;99103.91;111332;1231;109104;-79
2023/11/09 04:24:03;;;;;;;19.70;8.00;;;;;;;6.61;71.51;99104.16;111442;1232;95141;-80
2023/11/09 04:26:45;;;;;;;19.60;8.60;;;;;;;6.54;71.74;99102.26;111489;1230;107512;-79
2023/11/09 04:29:15;;;;;;;21.00;8.60;;;;;;;6.49;71.50;99105.55;111324;1231;94257;-79
2023/11/09 04:31:50;;;;;;;;;;;;;;;6.45;71.43;99106.66;111256;1231;94503;-79
2023/11/09 04:34:19;;;;;;;17.80;7.60;;;;;;;6.37;71.55;99106.34;111497;1231;109750;-80
2023/11/09 04:36:57;;;;;;;20.30;8.40;;;;;;;6.32;71.60;99104.53;111299;1231;95332;-79
2023/11/09 04:39:41;;;;;;;19.20;8.00;;;;;;;6.28;71.67;99105.61;111379;1232;107168;-79
2023/11/09 04:42:19;;;;;;;21.10;7.70;;;;;;;6.24;71.60;99106.36;111258;1231;94620;-79
2023/11/09 04:44:53;;;;;;;20.70;6.80;;;;;;;6.19;71.57;99105.20;111350;1230;94550;-79
2023/11/09 04:48:07;;;;;;;;;;;;;;;;;;;;;
2023/11/09 04:50:49;;;;;;;19.50;7.80;;;;;;;6.09;71.59;99105.73;111313;1235;96045;-79
2023/11/09 04:53:45;;;;;;;23.20;9.30;;;;;;;6.07;71.53;99104.60;111338;1230;106814;-80
2023/11/09 04:56:30;;;;;;;19.20;8.20;;;;;;;6.03;71.44;99110.45;111397;1232;94509;-79
2023/11/09 05:07:35;;;;;;;20.40;7.40;;;;;;;6.02;71.68;99105.80;111499;1230;107597;-76
2023/11/09 05:10:11;;;;;;;18.30;6.60;;;;;;;6.02;71.55;99105.44;111415;1231;94241;-76
2023/11/09 05:12:38;;;;;;;15.70;6.90;;;;;;;5.96;71.40;99107.08;111427;1231;94225;-76
2023/11/09 05:15:06;;;;;;;16.80;7.10;;;;;;;5.92;71.58;99109.60;111442;1230;94311;-76
2023/11/09 05:17:33;;;;;;;18.20;6.60;;;;;;;5.89;71.46;99114.69;111462;1230;94220;-76
2023/11/09 05:19:59;;;;;;;15.10;5.80;;;;;;;5.84;71.45;99115.30;111460;1230;94515;-78
2023/11/09 05:22:26;;;;;;;17.10;6.20;;;;;;;5.80;71.63;99110.03;111441;1234;94647;-77
2023/11/09 05:24:55;;;;;;;17.50;6.20;;;;;;;5.81;71.46;99114.58;111721;1231;94164;-76
2023/11/09 05:27:22;;;;;;;18.00;6.00;;;;;;;5.82;71.48;99115.74;111465;1231;110051;-77
2023/11/09 05:30:04;;;;;;;17.30;6.40;;;;;;;5.82;71.58;99111.89;111418;1230;95575;-81
2023/11/09 05:32:47;;;;;;;15.70;5.60;;;;;;;5.78;71.23;99112.95;111257;1230;107623;-79
2023/11/09 05:35:17;;;;;;;13.40;5.00;;;;;;;5.76;71.41;99113.63;111252;1230;94433;-77
2023/11/09 05:37:43;;;;;;;14.50;6.00;;;;;;;5.75;71.44;99118.56;111421;1232;94165;-79
2023/11/09 05:40:10;;;;;;;14.90;6.00;;;;;;;5.75;71.44;99122.60;111493;1232;94638;-78
2023/11/09 05:42:41;;;;;;;16.70;5.60;;;;;;;5.76;71.56;99126.27;111493;1231;94599;-79
2023/11/09 05:45:09;;;;;;;16.40;6.20;;;;;;;5.74;71.43;99125.29;111369;1230;107439;-76
2023/11/09 05:47:40;;;;;;;16.60;5.90;;;;;;;5.73;71.52;99129.05;111445;1231;94600;-76
2023/11/09 05:50:13;;;;;;;14.90;5.90;;;;;;;5.74;71.57;99131.50;111658;1231;94320;-81
2023/11/09 05:52:41;;;;;;;14.20;5.80;;;;;;;5.71;71.32;99127.58;111432;1230;110394;-76
2023/11/09 05:55:08;;;;;;;12.80;5.10;;;;;;;5.67;71.38;99127.61;111487;1232;95406;-80
2023/11/09 05:57:48;;;;;;;18.60;5.60;;;;;;;5.66;71.40;99128.55;111279;1232;94549;-77
2023/11/09 06:00:21;;;;;;;12.10;4.90;;;;;;;5.63;71.41;99129.02;111745;1231;94481;-79
2023/11/09 06:03:01;;;;;;;;;;;;;;;;;;;;;
2023/11/09 06:05:50;;;;;;;14.30;5.30;;;;;;;5.62;71.56;99129.08;111566;1230;110466;-79
2023/11/09 06:08:19;;;;;;;15.80;5.40;;;;;;;5.64;71.51;99128.98;111390;1231;95807;-76
2023/11/09 06:10:47;;;;;;;14.00;5.20;;;;;;;5.65;71.53;99127.16;111417;1231;107703;-77
2023/11/09 06:13:22;;;;;;;12.10;4.80;;;;;;;5.66;71.37;99125.37;111216;1230;94721;-76
2023/11/09 06:15:53;;;;;;;13.10;5.00;;;;;;;5.67;71.55;99127.60;111775;1230;94428;-76
2023/11/09 06:18:27;;;;;;;11.30;4.70;;;;;;;5.70;71.46;99130.10;111717;1231;94333;-76
2023/11/09 06:20:57;;;;;;;12.00;4.60;;;;;;;5.70;71.50;99131.02;111694;1231;94867;-78
2023/11/09 06:23:24;;;;;;;12.40;4.40;;;;;;;5.70;71.48;99132.23;111421;1231;106840;-76
2023/11/09 06:25:51;;;;;;;11.80;5.00;;;;;;;5.71;71.38;99130.40;111385;1232;94446;-76
2023/11/09 06:28:18;;;;;;;13.50;4.60;;;;;;;5.70;71.48;99131.17;111732;1230;94328;-77
2023/11/09 06:30:47;;;;;;;12.30;4.60;;;;;;;5.71;71.51;99133.95;111694;1232;110127;-78
2023/11/09 06:33:20;;;;;;;15.40;5.90;;;;;;;5.73;71.44;99135.91;111401;1230;94487;-78
2023/11/09 06:35:51;;;;;;;7.60;3.60;;;;;;;5.75;71.51;99139.34;111519;1231;107483;-81
2023/11/09 06:38:22;;;;;;;12.70;4.90;;;;;;;5.76;71.48;99138.73;111472;1230;94431;-77
2023/11/09 06:40:49;;;;;;;13.60;4.90;;;;;;;5.79;71.44;99139.13;111809;1230;94390;-77
2023/11/09 06:43:18;;;;;;;14.00;4.80;;;;;;;5.82;71.45;99138.83;111813;1231;94593;-77
2023/11/09 06:45:47;;;;;;;10.00;4.40;;;;;;;5.85;71.57;99140.41;111782;1231;95219;-76
2023/11/09 06:48:15;;;;;;;11.80;4.10;;;;;;;5.87;71.49;99139.77;111421;1231;94628;-78
2023/11/09 06:50:41;;;;;;;10.10;3.80;;;;;;;5.90;71.52;99142.27;111786;1231;94490;-78
2023/11/09 06:53:08;;;;;;;8.40;3.90;;;;;;;5.93;71.63;99139.45;111771;1231;94163;-78
2023/11/09 06:55:35;;;;;;;10.70;3.80;;;;;;;5.97;71.52;99142.06;111844;1231;94289;-78
2023/11/09 06:58:06;;;;;;;11.60;4.50;;;;;;;6.01;71.71;99146.14;111815;1230;95265;-78
2023/11/09 07:00:48;;;;;;;10.10;4.10;;;;;;;6.06;71.40;99149.37;111442;1230;107516;-78
2023/11/09 07:03:19;;;;;;;9.70;4.20;;;;;;;6.09;71.35;99148.69;111489;1230;94211;-78
2023/11/09 07:05:51;;;;;;;11.50;4.10;;;;;;;6.12;71.61;99146.05;111615;1230;94225;-77
2023/11/09 07:08:21;;;;;;;11.20;4.50;;;;;;;6.18;71.79;99145.23;111341;1231;109868;-77
2023/11/09 07:10:48;;;;;;;11.30;3.90;;;;;;;6.24;71.58;99146.16;111884;1231;95300;-77
2023/11/09 07:13:15;;;;;;;9.70;3.80;;;;;;;6.28;71.69;99147.92;111780;1231;94588;-76
2023/11/09 07:15:42;;;;;;;8.20;3.70;;;;;;;6.31;71.79;99149.16;111822;1230;94212;-77
2023/11/09 07:18:14;;;;;;;7.80;3.60;;;;;;;6.33;71.68;99145.65;111872;1231;94664;-78
2023/11/09 07:20:43;;;;;;;8.60;3.70;;;;;;;6.36;71.48;99146.20;111726;1232;110228;-79
2023/11/09 07:23:14;;;;;;;11.30;3.90;;;;;;;6.38;71.52;99142.40;111537;1231;95473;-79
2023/11/09 07:25:45;;;;;;;8.40;3.90;;;;;;;6.42;71.60;99146.77;111458;1230;94562;-78
2023/11/09 07:28:13;;;;;;;10.50;3.60;;;;;;;6.46;71.79;99140.21;111809;1231;94470;-78
2023/11/09 07:30:47;;;;;;;7.80;3.70;;;;;;;6.51;71.61;99139.96;111768;1231;94122;-77
2023/11/09 07:33:15;;;;;;;10.20;4.10;;;;;;;6.56;71.60;99142.87;111852;1231;109909;-78
2023/11/09 07:35:44;;;;;;;10.90;4.10;;;;;;;6.60;71.64;99140.52;111473;1230;94713;-77
2023/11/09 07:38:14;;;;;;;12.50;4.20;;;;;;;6.64;71.70;99139.23;111755;1230;107313;-77
2023/11/09 07:40:44;;;;;;;9.10;3.60;;;;;;;6.68;71.71;99138.33;111781;1230;94203;-79
2023/11/09 07:43:13;;;;;;;7.10;3.30;;;;;;;6.72;71.65;99138.48;111391;1231;94168;-78
2023/11/09 07:45:40;;;;;;;8.30;4.00;;;;;;;6.76;71.79;99140.70;111755;1231;94658;-77
2023/11/09 07:48:07;;;;;;;9.50;3.70;;;;;;;6.82;71.72;99136.71;111806;1231;94280;-77
2023/11/09 07:50:38;;;;;;;10.20;3.90;;;;;;;6.87;71.74;99137.45;111763;1230;107573;-77
2023/11/09 07:53:06;;;;;;;7.90;3.70;;;;;;;6.92;71.65;99137.36;111762;1230;94252;-77
2023/11/09 07:55:44;;;;;;;8.30;4.00;;;;;;;6.98;71.60;99137.02;111739;1230;94139;-78
2023/11/09 07:58:13;;;;;;;10.30;4.40;;;;;;;7.04;71.86;99137.94;111461;1232;109463;-77
2023/11/09 08:00:48;;;;;;;8.60;3.30;;;;;;;7.08;71.71;99139.45;111473;1231;95128;-77
2023/11/09 08:03:17;;;;;;;11.20;4.10;;;;;;;7.13;71.74;99136.00;111766;1231;107601;-77
2023/11/09 08:05:44;;;;;;;12.20;3.70;;;;;;;7.18;71.81;99137.11;111786;1231;94166;-76
2023/11/09 08:08:16;;;;;;;6.90;3.10;;;;;;;7.25;71.94;99133.38;111512;1230;94283;-76
2023/11/09 08:10:44;;;;;;;7.00;3.00;;;;;;;7.31;71.82;99131.45;111567;1230;110026;-77
2023/11/09 08:13:12;;;;;;;6.70;3.00;;;;;;;7.36;71.67;99134.83;111397;1230;95274;-77
2023/11/09 08:15:39;;;;;;;9.70;3.20;;;;;;;7.41;71.88;99131.02;111794;1231;94194;-77
2023/11/09 08:18:11;;;;;;;5.60;3.20;;;;;;;7.47;71.61;99132.64;111770;1232;94320;-78
2023/11/09 08:21:05;;;;;;;8.30;2.90;;;;;;;7.54;71.68;99126.02;111503;1231;94289;-79
2023/11/09 08:23:36;;;;;;;9.60;3.50;;;;;;;7.59;71.88;99126.05;111403;1230;109794;-78
2023/11/09 08:26:07;;;;;;;7.70;4.00;;;;;;;7.65;71.72;99125.95;111612;1230;94196;-80
2023/11/09 08:28:42;;;;;;;9.90;4.20;;;;;;;7.69;71.80;99124.09;111529;1231;107909;-78
2023/11/09 08:32:02;;;;;;;;;;;;;;;;;;;;;
2023/11/09 08:34:19;;;;;;;8.90;3.50;;;;;;;7.78;71.59;99119.15;111807;1230;94166;-79
2023/11/09 08:36:48;;;;;;;9.40;3.90;;;;;;;7.82;71.83;99114.85;111645;1231;109336;-78
2023/11/09 08:39:22;;;;;;;10.10;4.00;;;;;;;7.85;71.71;99112.34;111417;1231;94545;-80
2023/11/09 08:41:54;;;;;;;8.60;3.60;;;;;;;7.89;71.72;99112.98;111498;1230;107526;-76
2023/11/09 08:44:20;;;;;;;8.60;3.90;;;;;;;7.93;71.71;99113.67;111790;1230;94215;-77
2023/11/09 08:46:50;;;;;;;9.10;3.90;;;;;;;7.97;71.71;99113.93;111699;1231;94167;-78
2023/11/09 08:49:18;;;;;;;11.20;4.40;;;;;;;8.01;71.66;99119.52;111370;1230;109811;-78
2023/11/09 08:51:50;;;;;;;13.00;4.80;;;;;;;8.05;71.59;99122.83;111452;1231;94723;-76
2023/11/09 08:54:22;;;;;;;12.00;4.30;;;;;;;8.08;71.73;99123.88;111716;1230;107526;-76
2023/11/09 08:56:53;;;;;;;10.10;4.40;;;;;;;8.11;71.58;99121.23;111643;1230;180467;-77
2023/11/09 08:59:27;;;;;;;12.00;4.90;;;;;;;8.13;71.52;99116.84;111528;1230;94278;-77
2023/11/09 09:01:54;;;;;;;13.40;5.40;;;;;;;8.16;71.66;99113.13;111764;1230;109368;-77
2023/11/09 09:04:38;;;;;;;12.70;5.10;;;;;;;8.19;71.57;99115.26;111541;1230;95254;-80
2023/11/09 09:07:06;;;;;;;15.20;5.40;;;;;;;8.21;71.60;99110.86;111507;1230;107470;-78
2023/11/09 09:09:34;;;;;;;14.20;5.50;;;;;;;8.24;71.55;99109.84;111500;1230;94204;-77
2023/11/09 09:12:15;;;;;;;15.80;5.80;;;;;;;8.25;71.56;99111.84;111548;1234;94216;-78
2023/11/09 09:14:47;;;;;;;12.80;5.80;;;;;;;8.27;71.56;99110.68;111495;1230;108734;-79
2023/11/09 09:17:16;;;;;;;13.70;6.10;;;;;;;8.30;71.57;99111.04;111322;1236;95334;-77
2023/11/09 09:19:43;;;;;;;16.30;5.90;;;;;;;8.32;71.48;99111.27;111546;1230;94175;-77
2023/11/09 09:22:13;;;;;;;13.00;5.60;;;;;;;8.33;71.59;99119.16;111337;1230;94282;-78
2023/11/09 09:24:47;;;;;;;15.30;6.40;;;;;;;8.34;71.52;99118.90;111484;1231;94503;-76
2023/11/09 09:27:14;;;;;;;15.60;6.30;;;;;;;8.37;71.52;99117.48;111813;1230;109764;-80
2023/11/09 09:29:46;;;;;;;12.90;5.70;;;;;;;8.40;71.44;99113.95;111465;1230;95588;-79
2023/11/09 09:32:13;;;;;;;12.80;5.70;;;;;;;8.43;71.53;99109.33;111382;1230;107301;-77
2023/11/09 09:34:41;;;;;;;10.40;4.60;;;;;;;8.45;71.43;99101.95;111782;1231;94439;-76
2023/11/09 09:37:10;;;;;;;11.80;5.70;;;;;;;8.47;71.34;99102.94;111447;1231;94221;-77
2023/11/09 09:39:37;;;;;;;12.70;5.80;;;;;;;8.47;71.38;99099.73;111773;1230;107732;-77
2023/11/09 09:42:04;;;;;;;15.20;6.30;;;;;;;8.47;71.38;99106.79;111863;1232;94213;-79
2023/11/09 09:44:35;;;;;;;14.00;6.20;;;;;;;8.48;71.41;99105.33;111845;1230;107510;-78
2023/11/09 09:47:02;;;;;;;11.50;4.90;;;;;;;8.49;71.35;99106.33;111742;1231;94422;-79
2023/11/09 09:49:29;;;;;;;16.10;5.90;;;;;;;8.52;71.43;99107.76;111801;1231;94147;-80
2023/11/09 09:52:02;;;;;;;13.10;5.60;;;;;;;8.55;71.39;99108.99;111747;1231;94179;-77
2023/11/09 09:54:32;;;;;;;15.70;5.70;;;;;;;8.58;71.28;99106.67;111531;1231;95492;-77
2023/11/09 09:57:09;;;;;;;13.40;5.40;;;;;;;8.59;71.25;99101.64;111505;1230;107505;-76
2023/11/09 09:59:36;;;;;;;12.80;5.30;;;;;;;8.60;71.22;99095.89;111826;1230;94398;-77
2023/11/09 10:02:12;;;;;;;13.30;5.40;;;;;;;8.62;71.25;99090.68;111836;1230;94166;-76
2023/11/09 10:04:44;;;;;;;12.80;5.20;;;;;;;8.63;71.32;99082.98;111558;1231;108503;-75
2023/11/09 10:07:12;;;;;;;12.60;5.30;;;;;;;8.66;71.18;99078.94;111565;1230;95099;-76
2023/11/09 10:09:46;;;;;;;11.80;5.10;;;;;;;8.69;71.28;99078.39;111550;1230;108854;-77
2023/11/09 10:12:15;;;;;;;;;;;;;;;8.73;71.23;99070.73;111795;1230;94476;-77
2023/11/09 10:15:15;;;;;;;12.20;5.20;;;;;;;8.73;71.00;99068.98;111571;1230;94218;-77
2023/11/09 10:17:46;;;;;;;16.30;4.90;;;;;;;8.74;71.05;99067.27;111560;1230;111957;-77
2023/11/09 10:20:15;;;;;;;10.80;4.60;;;;;;;8.77;71.10;99060.91;111770;1231;95321;-77
2023/11/09 10:22:45;;;;;;;12.20;4.70;;;;;;;8.80;71.06;99061.61;111499;1236;94133;-77
2023/11/09 10:25:17;;;;;;;10.70;4.70;;;;;;;8.82;71.05;99055.29;111497;1231;94175;-76
2023/11/09 10:27:54;;;;;;;14.80;5.10;;;;;;;8.84;71.08;99057.25;111792;1230;94147;-80
2023/11/09 10:30:23;;;;;;;10.50;4.60;;;;;;;8.87;70.95;99061.70;111735;1230;109671;-77
2023/11/09 10:33:08;;;;;;;11.70;4.50;;;;;;;8.89;71.01;99064.52;111778;1231;95414;-77
2023/11/09 10:35:41;;;;;;;12.70;4.90;;;;;;;8.90;70.92;99062.18;111535;1230;107303;-77
2023/11/09 10:38:24;;;;;;;9.40;4.10;;;;;;;8.91;70.97;99061.04;111521;1230;94499;-77
2023/11/09 10:40:57;;;;;;;8.70;4.10;;;;;;;8.92;70.88;99053.54;111406;1230;94208;-77
2023/11/09 10:43:59;;;;;;;8.90;3.90;;;;;;;8.92;70.77;99051.45;111482;1230;109486;-76
2023/11/09 10:46:33;;;;;;;8.60;4.10;;;;;;;8.93;70.81;99052.09;111813;1231;95166;-78
2023/11/09 10:49:08;;;;;;;11.40;4.20;;;;;;;8.94;70.79;99040.88;111569;1231;107234;-79
2023/11/09 10:51:47;;;;;;;;;;;;;;;;;;;;;
2023/11/09 10:54:18;;;;;;;10.70;4.70;;;;;;;8.96;70.59;99036.52;111816;1230;94577;-78
2023/11/09 10:56:51;;;;;;;12.00;4.10;;;;;;;8.96;70.69;99042.34;111390;1230;109680;-77
2023/11/09 10:59:29;;;;;;;8.20;3.90;;;;;;;8.97;70.58;99039.25;111800;1230;95656;-77
2023/11/09 11:02:08;;;;;;;9.50;4.40;;;;;;;8.97;70.56;99039.25;111464;1231;108651;-78
2023/11/09 11:05:05;;;;;;;13.70;4.90;;;;;;;9.01;70.47;99039.15;102123;1293;635955;-79
2023/11/09 11:07:37;;;;;;;11.10;4.90;;;;;;;9.01;70.52;99037.38;104405;1271;94248;-77
2023/11/09 11:10:16;;;;;;;11.30;5.00;;;;;;;9.04;70.51;99038.66;104340;1271;95240;-76
2023/11/09 11:12:45;;;;;;;11.70;4.80;;;;;;;9.04;70.50;99033.69;104818;1265;107103;-78
2023/11/09 11:15:29;;;;;;;;;;;;;;;;;;;;;
2023/11/09 11:18:14;;;;;;;10.60;4.30;;;;;;;9.02;70.45;99024.59;105128;1257;212242;-77
2023/11/09 11:21:00;;;;;;;11.90;4.90;;;;;;;9.01;70.38;99024.70;104988;1262;94274;-79
2023/11/09 11:24:16;;;;;;;9.80;4.60;;;;;;;9.00;70.29;99021.91;104852;1262;94329;-78
2023/11/09 11:27:16;;;;;;;11.30;5.00;;;;;;;9.00;70.43;99019.27;105046;1259;107316;-78
2023/11/09 11:29:48;;;;;;;12.40;4.80;;;;;;;9.02;70.30;99016.66;105057;1268;95556;-78
2023/11/09 11:32:33;;;;;;;16.50;4.60;;;;;;;9.03;70.34;99013.77;104980;1261;108078;-78
2023/11/09 11:35:01;;;;;;;13.40;5.40;;;;;;;9.02;70.32;99010.27;104772;1269;95394;-78
2023/11/09 11:37:32;;;;;;;14.90;5.20;;;;;;;9.02;70.32;99010.06;104852;1265;95346;-78
2023/11/09 11:40:05;;;;;;;13.60;5.10;;;;;;;9.03;70.16;99010.38;104954;1259;108687;-78
2023/11/09 11:42:34;;;;;;;12.20;5.00;;;;;;;9.03;70.16;99001.91;104851;1259;95658;-78
2023/11/09 11:45:04;;;;;;;8.90;4.10;;;;;;;9.02;70.03;99003.02;105021;1263;107574;-79
2023/11/09 11:47:34;;;;;;;13.00;5.30;;;;;;;9.01;70.10;99001.29;104924;1261;95276;-78
2023/11/09 11:50:16;;;;;;;12.40;5.70;;;;;;;9.03;70.04;98999.08;105182;1260;95241;-78
2023/11/09 11:52:48;;;;;;;16.80;7.20;;;;;;;9.04;70.17;98996.01;104963;1256;108156;-79
2023/11/09 11:55:36;;;;;;;16.60;6.40;;;;;;;9.05;69.98;98990.45;105044;1262;95981;-78
2023/11/09 11:58:13;;;;;;;11.90;5.40;;;;;;;9.06;69.98;98984.53;105004;1259;107417;-78
2023/11/09 12:00:42;;;;;;;13.00;5.30;;;;;;;9.07;69.87;98988.18;105197;1262;95306;-78
2023/11/09 12:03:12;;;;;;;12.60;4.60;;;;;;;9.08;69.97;98989.51;105223;1256;95264;-78
2023/11/09 12:05:41;;;;;;;9.30;4.70;;;;;;;9.08;70.00;98988.25;104998;1261;108538;-79
2023/11/09 12:08:13;;;;;;;10.80;5.00;;;;;;;9.09;69.82;98987.52;105015;1262;95286;-78
2023/11/09 12:10:44;;;;;;;11.60;4.60;;;;;;;9.10;69.80;98983.20;105015;1261;107470;-79
2023/11/09 12:13:19;;;;;;;10.10;4.80;;;;;;;9.12;69.73;98978.66;104956;1261;95364;-77
2023/11/09 12:15:47;;;;;;;12.10;5.20;;;;;;;9.14;69.85;98976.04;105055;1261;95379;-78
2023/11/09 12:18:25;;;;;;;10.30;4.60;;;;;;;9.15;69.74;98974.19;105120;1262;110425;-78
2023/11/09 12:21:42;;;;;;;14.10;5.50;;;;;;;9.19;69.65;98976.08;105005;1256;95238;-79
2023/11/09 12:23:56;;;;;;;13.10;5.60;;;;;;;9.22;69.68;98974.81;104843;1262;107820;-79
2023/11/09 12:26:32;;;;;;;9.70;4.50;;;;;;;9.25;69.71;98972.63;106402;1261;95358;-77
2023/11/09 12:29:00;;;;;;;11.10;4.40;;;;;;;9.28;69.76;98970.70;105203;1256;95212;-77
2023/11/09 12:31:30;;;;;;;12.60;5.10;;;;;;;9.28;69.59;98970.15;104959;1270;107625;-77
2023/11/09 12:34:08;;;;;;;11.30;5.10;;;;;;;9.32;69.67;98968.31;105335;1258;95226;-78
2023/11/09 12:36:41;;;;;;;13.60;5.40;;;;;;;9.34;69.61;98962.84;105041;1255;107763;-79
2023/11/09 12:39:29;;;;;;;14.10;4.80;;;;;;;9.33;69.54;98958.47;105144;1260;95248;-77
2023/11/09 12:42:00;;;;;;;10.30;4.70;;;;;;;9.34;69.53;98959.30;105430;1258;96173;-78
2023/11/09 12:44:34;;;;;;;11.30;4.80;;;;;;;9.33;69.64;98952.11;105183;1259;107559;-78
2023/11/09 12:47:15;;;;;;;15.90;5.50;;;;;;;9.33;69.55;98951.23;105338;1259;95246;-77
2023/11/09 12:50:01;;;;;;;10.70;4.60;;;;;;;9.33;69.42;98953.37;105424;1259;108283;-78
2023/11/09 12:52:30;;;;;;;11.10;4.80;;;;;;;9.32;69.41;98951.08;105286;1260;95206;-77
2023/11/09 12:55:06;;;;;;;8.90;4.50;;;;;;;9.32;69.50;98948.80;105403;1259;95263;-81
2023/11/09 12:57:49;;;;;;;12.60;5.40;;;;;;;9.30;69.35;98947.86;105369;1258;108477;-80
2023/11/09 13:00:23;;;;;;;10.50;4.70;;;;;;;9.28;69.47;98945.88;105080;1272;95510;-80
2023/11/09 13:02:56;;;;;;;11.10;4.70;;;;;;;9.26;69.26;98938.41;105392;1258;107162;-79
2023/11/09 13:05:32;;;;;;;10.40;4.70;;;;;;;9.23;69.27;98936.29;105407;1270;95243;-76
2023/11/09 13:08:09;;;;;;;12.40;4.50;;;;;;;9.19;69.26;98930.92;105166;1259;95588;-76
2023/11/09 13:10:40;;;;;;;9.70;4.00;;;;;;;9.16;69.24;98930.63;106976;1257;108382;-76
2023/11/09 13:13:22;;;;;;;11.10;4.20;;;;;;;9.14;69.19;98925.83;105576;1258;95239;-76
2023/11/09 13:15:56;;;;;;;10.30;4.40;;;;;;;9.12;69.15;98926.27;105412;1258;107529;-76
2023/11/09 13:18:27;;;;;;;9.10;4.00;;;;;;;9.12;69.14;98920.66;105200;1259;96239;-77
2023/11/09 13:20:57;;;;;;;10.90;4.20;;;;;;;9.12;69.10;98924.38;105278;1258;95739;-76
2023/11/09 13:23:41;;;;;;;12.00;4.40;;;;;;;9.11;69.12;98918.41;105450;1258;108695;-76
2023/11/09 13:26:11;;;;;;;8.70;4.30;;;;;;;9.09;69.02;98910.40;105188;1259;96183;-79
2023/11/09 13:28:43;;;;;;;10.10;4.70;;;;;;;9.09;69.12;98909.31;105130;1259;107647;-77
2023/11/09 13:31:25;;;;;;;11.40;5.10;;;;;;;9.08;69.16;98906.77;105310;1253;95244;-76
2023/11/09 13:33:54;;;;;;;11.00;5.00;;;;;;;9.07;69.13;98904.46;105403;1258;96472;-76
2023/11/09 13:36:40;;;;;;;9.50;4.00;;;;;;;9.06;69.11;98905.81;105573;1258;108414;-76
2023/11/09 13:41:41;;;;;;;14.80;6.60;;;;;;;9.03;69.00;98893.50;105203;1259;108342;-77
2023/11/09 13:44:12;;;;;;;10.40;4.70;;;;;;;9.01;68.97;98894.83;105335;1258;95163;-79
2023/11/09 13:46:42;;;;;;;11.50;4.90;;;;;;;9.00;69.05;98894.23;105395;1259;95239;-81
2023/11/09 13:52:02;;;;;;;9.40;3.90;;;;;;;8.97;68.93;98888.42;105162;1270;95430;-78
2023/11/09 13:59:32;;;;;;;9.50;4.50;;;;;;;8.88;68.86;98894.31;105204;1258;95252;-76
2023/11/09 14:02:00;;;;;;;11.40;5.10;;;;;;;8.87;68.88;98886.42;105436;1270;108190;-77
2023/11/09 14:04:31;;;;;;;8.90;4.00;;;;;;;8.84;68.82;98883.12;105276;1259;96082;-78
2023/11/09 14:07:01;;;;;;;10.00;4.50;;;;;;;8.81;68.78;98878.14;105206;1264;109540;-78
2023/11/09 14:09:42;;;;;;;10.40;4.20;;;;;;;8.78;68.89;98874.09;105441;1257;95256;-78
2023/11/09 14:12:24;;;;;;;11.40;4.40;;;;;;;8.75;68.73;98869.72;105372;1257;95292;-75
2023/11/09 14:14:51;;;;;;;12.20;4.10;;;;;;;8.71;68.71;98871.58;105178;1257;108926;-81
2023/11/09 14:17:28;;;;;;;12.80;4.20;;;;;;;8.67;68.74;98867.12;105203;1266;95322;-78
2023/11/09 14:19:59;;;;;;;9.50;3.70;;;;;;;8.64;68.64;98863.59;105232;1261;107284;-77
2023/11/09 14:22:28;;;;;;;11.50;4.30;;;;;;;8.61;68.69;98859.38;105504;1259;95222;-77
2023/11/09 14:25:08;;;;;;;16.40;6.00;;;;;;;8.58;68.64;98857.23;105464;1257;95247;-77
2023/11/09 14:27:40;;;;;;;15.30;5.00;;;;;;;8.56;68.62;98852.98;105095;1258;108864;-77
2023/11/09 14:30:08;;;;;;;10.80;4.40;;;;;;;8.54;68.79;98851.05;105194;1263;95776;-77
2023/11/09 14:32:36;;;;;;;12.30;4.30;;;;;;;8.51;68.62;98848.22;105370;1257;107523;-76
2023/11/09 14:35:05;;;;;;;11.00;4.00;;;;;;;8.47;68.50;98847.55;105142;1257;95384;-75
2023/11/09 14:37:36;;;;;;;13.80;4.50;;;;;;;8.44;68.50;98843.34;105449;1258;96177;-75
2023/11/09 14:40:13;;;;;;;14.20;4.00;;;;;;;8.40;68.48;98847.48;105138;1269;107298;-75
2023/11/09 14:42:41;;;;;;;10.20;4.20;;;;;;;8.38;68.51;98845.49;105211;1257;95253;-75